Time;durP1;ratioP1;P1;durP2;ratioP2;P2;SDS_P1;SDS_P2;PMS_P1;PMS_P2;Temp;Humidity;BMP_temperature;BMP_pressure;BME280_temperature;BME280_humidity;BME280_pressure;Samples;Min_cycle;Max_cycle;Signal;HPM_P1;HPM_P2
2023/12/06 00:00:59;;;;;;;78.70;38.90;;;;;;;-2.36;97.33;100284.14;105114;1257;70011;-49
2023/12/06 00:03:38;;;;;;;72.00;36.90;;;;;;;-2.34;97.24;100284.66;105103;1257;73108;-49
2023/12/06 00:06:06;;;;;;;68.50;36.70;;;;;;;-2.32;97.44;100288.80;105118;1261;83075;-50
2023/12/06 00:08:34;;;;;;;70.90;37.00;;;;;;;-2.29;97.47;100295.85;105093;1257;71793;-48
2023/12/06 00:11:03;;;;;;;78.90;38.70;;;;;;;-2.26;97.61;100297.63;105109;1260;69915;-50
2023/12/06 00:13:31;;;;;;;78.30;38.60;;;;;;;-2.22;97.63;100294.92;105178;1262;70033;-50
2023/12/06 00:16:00;;;;;;;74.10;39.40;;;;;;;-2.19;97.51;100292.40;105095;1256;72157;-49
2023/12/06 00:18:28;;;;;;;70.70;35.60;;;;;;;-2.20;97.34;100285.02;105168;1260;81767;-48
2023/12/06 00:20:57;;;;;;;70.90;38.00;;;;;;;-2.21;97.42;100278.34;105127;1256;73332;-48
2023/12/06 00:23:25;;;;;;;72.70;37.10;;;;;;;-2.22;97.12;100278.14;105093;1262;69954;-49
2023/12/06 00:25:53;;;;;;;74.80;37.30;;;;;;;-2.26;96.97;100279.13;105090;1261;70015;-49
2023/12/06 00:28:22;;;;;;;71.80;36.50;;;;;;;-2.30;97.10;100272.73;105103;1258;74078;-50
2023/12/06 00:30:50;;;;;;;68.70;35.60;;;;;;;-2.32;96.98;100272.54;105200;1261;81993;-49
2023/12/06 00:33:19;;;;;;;67.40;36.80;;;;;;;-2.34;97.10;100271.34;105130;1259;73057;-48
2023/12/06 00:35:47;;;;;;;73.70;38.00;;;;;;;-2.37;97.00;100273.17;105102;1258;69988;-48
2023/12/06 00:38:15;;;;;;;72.90;38.30;;;;;;;-2.40;96.94;100269.54;105149;1257;69995;-50
2023/12/06 00:40:44;;;;;;;69.60;35.90;;;;;;;-2.43;96.82;100274.96;105143;1259;72874;-50
2023/12/06 00:43:12;;;;;;;75.70;36.50;;;;;;;-2.44;97.09;100272.04;105141;1259;81314;-49
2023/12/06 00:45:40;;;;;;;69.40;36.30;;;;;;;-2.45;97.24;100272.88;105073;1259;71782;-49
2023/12/06 00:48:09;;;;;;;70.00;36.10;;;;;;;-2.47;97.12;100269.10;105080;1256;69935;-50
2023/12/06 00:50:37;;;;;;;69.00;35.00;;;;;;;-2.49;97.07;100273.52;105065;1261;69935;-50
2023/12/06 00:53:05;;;;;;;66.30;35.60;;;;;;;-2.53;96.86;100271.75;105137;1259;75454;-49
2023/12/06 00:55:33;;;;;;;63.60;33.50;;;;;;;-2.58;96.80;100270.14;105102;1261;80458;-49
2023/12/06 00:58:01;;;;;;;70.60;34.40;;;;;;;-2.63;96.53;100268.52;105078;1256;71918;-49
2023/12/06 01:00:29;;;;;;;68.10;34.00;;;;;;;-2.70;96.28;100274.92;105105;1262;70028;-49
2023/12/06 01:02:57;;;;;;;64.20;32.30;;;;;;;-2.78;95.88;100273.27;105106;1261;70459;-49
2023/12/06 01:05:26;;;;;;;64.70;33.20;;;;;;;-2.87;95.67;100271.42;105177;1257;72886;-49
2023/12/06 01:07:55;;;;;;;65.50;33.80;;;;;;;-2.94;95.59;100275.77;105163;1262;81524;-49
2023/12/06 01:10:24;;;;;;;63.70;34.00;;;;;;;-2.99;95.82;100275.01;105153;1257;71731;-49
2023/12/06 01:12:52;;;;;;;63.30;32.60;;;;;;;-3.02;95.85;100280.08;105142;1256;70005;-51
2023/12/06 01:15:20;;;;;;;59.50;31.10;;;;;;;-3.06;95.88;100282.08;105152;1262;69932;-48
2023/12/06 01:17:49;;;;;;;58.90;31.40;;;;;;;-3.10;95.74;100288.33;105176;1256;72673;-49
2023/12/06 01:20:17;;;;;;;65.30;32.70;;;;;;;-3.13;95.86;100292.04;105157;1256;81719;-49
2023/12/06 01:22:46;;;;;;;61.70;32.70;;;;;;;-3.17;95.79;100295.73;105153;1262;71906;-49
2023/12/06 01:25:14;;;;;;;63.60;32.90;;;;;;;-3.22;95.74;100294.12;105167;1256;69993;-49
2023/12/06 01:27:42;;;;;;;60.80;31.20;;;;;;;-3.26;95.62;100290.97;105114;1261;69990;-49
2023/12/06 01:30:11;;;;;;;62.60;31.70;;;;;;;-3.31;95.61;100293.11;105111;1262;74133;-48
2023/12/06 01:32:40;;;;;;;57.90;30.80;;;;;;;-3.36;95.48;100291.80;105145;1262;81314;-48
2023/12/06 01:35:09;;;;;;;63.80;32.70;;;;;;;-3.40;95.58;100288.34;105142;1257;72348;-49
2023/12/06 01:37:38;;;;;;;64.50;33.20;;;;;;;-3.42;95.70;100288.13;105139;1262;69971;-48
2023/12/06 01:40:07;;;;;;;61.30;32.60;;;;;;;-3.45;95.77;100289.44;105190;1262;70002;-49
2023/12/06 01:42:35;;;;;;;67.60;32.80;;;;;;;-3.45;95.85;100286.52;105165;1262;71511;-49
2023/12/06 01:45:05;;;;;;;68.10;33.90;;;;;;;-3.45;96.07;100287.56;105137;1256;81448;-50
2023/12/06 01:47:34;;;;;;;63.80;31.50;;;;;;;-3.43;96.31;100288.95;105123;1261;72354;-49
2023/12/06 01:50:04;;;;;;;72.90;37.40;;;;;;;-3.42;96.64;100287.60;105075;1262;69972;-50
2023/12/06 01:52:33;;;;;;;69.30;35.30;;;;;;;-3.38;96.92;100285.80;105093;1256;69976;-48
2023/12/06 01:55:01;;;;;;;66.10;34.80;;;;;;;-3.37;96.91;100284.46;105139;1257;73357;-49
2023/12/06 01:57:30;;;;;;;70.60;34.70;;;;;;;-3.37;96.82;100281.04;105177;1256;80666;-50
2023/12/06 01:59:59;;;;;;;73.40;36.30;;;;;;;-3.40;96.71;100284.40;105123;1257;70376;-49
2023/12/06 02:02:27;;;;;;;64.90;34.50;;;;;;;-3.45;96.51;100288.59;105173;1260;69984;-48
2023/12/06 02:04:55;;;;;;;71.90;36.10;;;;;;;-3.49;96.52;100289.53;105117;1262;69999;-49
2023/12/06 02:07:24;;;;;;;74.00;36.40;;;;;;;-3.51;96.76;100288.30;105111;1257;72994;-49
2023/12/06 02:09:52;;;;;;;77.00;38.90;;;;;;;-3.49;96.87;100285.42;105099;1262;82010;-49
2023/12/06 02:12:21;;;;;;;79.30;38.90;;;;;;;-3.47;97.23;100283.92;105075;1257;71933;-49
2023/12/06 02:14:49;;;;;;;72.20;37.60;;;;;;;-3.43;97.64;100284.88;105091;1260;70016;-48
2023/12/06 02:17:18;;;;;;;69.40;35.90;;;;;;;-3.43;97.27;100284.36;105085;1262;70581;-48
2023/12/06 02:19:47;;;;;;;71.10;36.20;;;;;;;-3.46;96.99;100287.71;105117;1259;74248;-49
2023/12/06 02:22:15;;;;;;;76.20;36.40;;;;;;;-3.50;96.82;100288.84;105077;1256;82821;-49
2023/12/06 02:24:45;;;;;;;68.70;35.50;;;;;;;-3.52;96.85;100285.58;105097;1259;70532;-49
2023/12/06 02:27:14;;;;;;;78.70;39.10;;;;;;;-3.49;97.22;100283.02;105038;1258;69954;-48
2023/12/06 02:29:42;;;;;;;80.70;38.70;;;;;;;-3.49;97.08;100282.86;105042;1262;70012;-49
2023/12/06 02:32:10;;;;;;;73.90;37.30;;;;;;;-3.49;97.24;100286.44;105104;1261;73205;-49
2023/12/06 02:34:38;;;;;;;70.10;36.20;;;;;;;-3.52;97.09;100279.58;105116;1261;81719;-48
2023/12/06 02:37:08;;;;;;;68.50;35.80;;;;;;;-3.56;96.76;100277.95;105184;1256;72803;-48
2023/12/06 02:39:40;;;;;;;79.90;38.50;;;;;;;-3.60;96.55;100282.85;105121;1262;69938;-50
2023/12/06 02:42:09;;;;;;;72.90;37.40;;;;;;;-3.65;96.44;100286.16;105149;1257;69957;-48
2023/12/06 02:44:37;;;;;;;73.70;36.50;;;;;;;-3.65;96.66;100288.23;105132;1262;73445;-50
2023/12/06 02:47:06;;;;;;;71.80;36.70;;;;;;;-3.69;96.54;100285.23;105051;1262;81598;-48
2023/12/06 02:49:34;;;;;;;79.10;36.80;;;;;;;-3.72;96.60;100292.88;105170;1262;71806;-48
2023/12/06 02:52:03;;;;;;;74.00;37.60;;;;;;;-3.73;96.50;100295.25;105069;1262;70617;-50
2023/12/06 02:54:31;;;;;;;66.50;34.50;;;;;;;-3.76;96.50;100288.68;105159;1261;70011;-48
2023/12/06 02:56:59;;;;;;;67.20;34.70;;;;;;;-3.80;96.36;100288.10;105095;1262;73594;-48
2023/12/06 02:59:27;;;;;;;71.50;35.20;;;;;;;-3.85;96.32;100283.93;105080;1261;82940;-49
2023/12/06 03:01:55;;;;;;;69.60;34.40;;;;;;;-3.88;96.20;100285.05;105076;1261;70667;-48
2023/12/06 03:04:24;;;;;;;66.40;34.60;;;;;;;-3.92;96.19;100288.05;105080;1258;69927;-48
2023/12/06 03:06:53;;;;;;;65.10;34.10;;;;;;;-3.93;96.31;100284.11;105182;1261;69961;-48
2023/12/06 03:09:21;;;;;;;69.30;33.90;;;;;;;-3.99;95.92;100286.53;105112;1257;73071;-48
2023/12/06 03:11:49;;;;;;;66.40;34.60;;;;;;;-4.06;95.80;100285.05;105104;1260;81340;-48
2023/12/06 03:14:17;;;;;;;63.60;33.60;;;;;;;-4.08;96.03;100285.49;105145;1257;71946;-49
2023/12/06 03:16:45;;;;;;;69.50;34.60;;;;;;;-4.11;95.98;100281.35;105068;1262;70033;-48
2023/12/06 03:19:14;;;;;;;62.90;32.50;;;;;;;-4.16;95.85;100278.70;105088;1263;69997;-48
2023/12/06 03:21:42;;;;;;;70.70;34.60;;;;;;;-4.23;95.45;100277.19;105112;1260;73995;-48
2023/12/06 03:24:10;;;;;;;69.30;33.30;;;;;;;-4.31;95.27;100279.92;105120;1262;82562;-48
2023/12/06 03:26:38;;;;;;;69.00;34.30;;;;;;;-4.37;95.33;100277.57;105122;1260;72082;-51
2023/12/06 03:29:06;;;;;;;63.40;32.20;;;;;;;-4.41;95.39;100280.04;105075;1256;69978;-49
2023/12/06 03:31:34;;;;;;;72.90;34.30;;;;;;;-4.43;95.48;100280.49;105052;1256;69887;-50
2023/12/06 03:34:02;;;;;;;65.40;33.30;;;;;;;-4.48;95.46;100280.91;105086;1259;72741;-50
2023/12/06 03:36:31;;;;;;;74.80;35.00;;;;;;;-4.55;95.34;100282.47;105076;1262;82017;-49
2023/12/06 03:38:59;;;;;;;68.20;34.10;;;;;;;-4.59;95.52;100284.08;105059;1261;71750;-50
2023/12/06 03:41:27;;;;;;;69.10;32.90;;;;;;;-4.60;95.70;100289.02;105156;1260;69932;-49
2023/12/06 03:43:56;;;;;;;64.40;31.30;;;;;;;-4.65;95.50;100287.54;105078;1262;69926;-49
2023/12/06 03:46:30;;;;;;;65.70;32.50;;;;;;;-4.68;95.51;100284.55;105153;1263;72728;-50
2023/12/06 03:49:00;;;;;;;66.50;32.30;;;;;;;-4.72;95.53;100282.77;105076;1262;81414;-50
2023/12/06 03:51:29;;;;;;;68.90;32.90;;;;;;;-4.80;95.22;100283.61;105114;1257;71987;-50
2023/12/06 03:53:57;;;;;;;70.90;34.50;;;;;;;-4.84;95.27;100286.07;105081;1261;69948;-50
2023/12/06 03:56:25;;;;;;;70.20;34.90;;;;;;;-4.87;95.45;100288.90;105068;1261;70001;-49
2023/12/06 03:58:54;;;;;;;67.60;33.50;;;;;;;-4.89;95.46;100291.23;105182;1262;72650;-49
2023/12/06 04:01:22;;;;;;;67.90;34.30;;;;;;;-4.92;95.46;100290.48;105168;1259;83693;-51
2023/12/06 04:03:52;;;;;;;71.40;33.40;;;;;;;-4.98;95.24;100298.52;105126;1262;71874;-49
2023/12/06 04:06:20;;;;;;;64.80;33.30;;;;;;;-5.02;95.33;100300.13;105157;1260;69958;-50
2023/12/06 04:08:48;;;;;;;69.20;33.50;;;;;;;-5.01;95.64;100301.70;105068;1260;69962;-49
2023/12/06 04:11:16;;;;;;;70.70;33.80;;;;;;;-5.06;95.32;100304.64;105113;1260;72612;-49
2023/12/06 04:13:44;;;;;;;64.80;32.50;;;;;;;-5.09;95.46;100303.89;105086;1262;81622;-50
2023/12/06 04:16:13;;;;;;;68.40;34.30;;;;;;;-5.09;95.69;100301.50;105064;1260;70928;-47
2023/12/06 04:18:42;;;;;;;61.30;31.10;;;;;;;-5.12;95.45;100302.10;105152;1265;69933;-48
2023/12/06 04:21:10;;;;;;;68.60;32.00;;;;;;;-5.20;95.03;100303.95;105025;1262;69993;-48
2023/12/06 04:23:38;;;;;;;68.50;33.80;;;;;;;-5.26;95.10;100304.14;105111;1262;71690;-49
2023/12/06 04:26:06;;;;;;;65.50;33.20;;;;;;;-5.25;95.40;100305.19;105023;1262;80603;-49
2023/12/06 04:28:34;;;;;;;63.70;30.20;;;;;;;-5.26;95.47;100305.68;105062;1257;73877;-48
2023/12/06 04:31:03;;;;;;;65.30;31.50;;;;;;;-5.32;95.07;100303.49;105073;1262;70014;-49
2023/12/06 04:33:32;;;;;;;71.60;33.50;;;;;;;-5.37;95.13;100306.08;105107;1257;70387;-49
2023/12/06 04:36:00;;;;;;;75.20;35.30;;;;;;;-5.41;95.10;100306.98;105152;1262;73884;-49
2023/12/06 04:38:28;;;;;;;71.90;32.90;;;;;;;-5.41;95.30;100306.83;105068;1262;81974;-50
2023/12/06 04:40:56;;;;;;;66.60;31.90;;;;;;;-5.44;95.13;100306.91;105061;1260;71818;-49
2023/12/06 04:43:25;;;;;;;64.60;32.20;;;;;;;-5.49;94.93;100302.36;105149;1260;69974;-49
2023/12/06 04:45:53;;;;;;;67.40;32.60;;;;;;;-5.52;95.04;100303.66;105069;1262;69999;-50
2023/12/06 04:48:22;;;;;;;73.20;32.90;;;;;;;-5.55;95.03;100302.53;105041;1262;72194;-49
2023/12/06 04:50:51;;;;;;;68.00;32.90;;;;;;;-5.56;95.23;100303.03;105121;1262;81561;-48
2023/12/06 04:53:19;;;;;;;67.50;33.50;;;;;;;-5.55;95.34;100297.42;105030;1262;71920;-50
2023/12/06 04:55:47;;;;;;;76.10;34.20;;;;;;;-5.57;95.34;100299.58;105051;1263;69958;-50
2023/12/06 04:58:16;;;;;;;74.90;34.60;;;;;;;-5.60;95.31;100298.49;105010;1262;70323;-49
2023/12/06 05:00:44;;;;;;;76.90;35.30;;;;;;;-5.61;95.42;100303.06;105052;1270;73368;-49
2023/12/06 05:03:12;;;;;;;68.90;33.10;;;;;;;-5.63;95.32;100301.13;105079;1262;81380;-49
2023/12/06 05:05:41;;;;;;;71.60;34.60;;;;;;;-5.64;95.36;100299.92;105106;1256;73866;-48
2023/12/06 05:08:09;;;;;;;65.20;32.70;;;;;;;-5.66;95.36;100298.33;105090;1258;69983;-49
2023/12/06 05:10:38;;;;;;;66.10;31.90;;;;;;;-5.68;95.29;100299.30;105052;1262;69994;-49
2023/12/06 05:13:06;;;;;;;70.40;34.50;;;;;;;-5.69;95.31;100305.56;105066;1259;71516;-49
2023/12/06 05:15:34;;;;;;;79.00;38.20;;;;;;;-5.67;95.89;100309.55;105231;1262;83524;-48
2023/12/06 05:18:03;;;;;;;88.90;39.50;;;;;;;-5.59;96.42;100307.70;105166;1262;71684;-47
2023/12/06 05:20:31;;;;;;;81.90;40.20;;;;;;;-5.52;96.75;100310.95;105126;1263;70265;-47
2023/12/06 05:23:00;;;;;;;82.90;38.80;;;;;;;-5.47;96.78;100319.60;105084;1262;69996;-47
2023/12/06 05:25:28;;;;;;;83.90;39.30;;;;;;;-5.43;96.87;100319.02;105099;1261;74537;-47
2023/12/06 05:27:56;;;;;;;82.70;39.30;;;;;;;-5.42;96.79;100317.37;105073;1262;81304;-48
2023/12/06 05:30:24;;;;;;;89.40;41.70;;;;;;;-5.41;96.68;100316.70;105004;1262;71699;-47
2023/12/06 05:32:54;;;;;;;173.80;66.70;;;;;;;-5.41;96.41;100322.14;105242;1257;69932;-48
2023/12/06 05:35:22;;;;;;;170.10;67.70;;;;;;;-5.40;96.61;100326.09;105135;1260;70086;-47
2023/12/06 05:37:51;;;;;;;141.60;58.10;;;;;;;-5.37;96.77;100323.79;105019;1263;74498;-49
2023/12/06 05:40:20;;;;;;;115.30;48.00;;;;;;;-5.34;96.89;100320.98;105045;1261;81127;-48
2023/12/06 05:42:49;;;;;;;111.20;49.90;;;;;;;-5.33;96.68;100325.41;105283;1262;71898;-48
2023/12/06 05:45:17;;;;;;;97.50;45.60;;;;;;;-5.31;96.88;100325.27;105804;1257;70332;-47
2023/12/06 05:47:46;;;;;;;99.70;45.00;;;;;;;-5.29;97.18;100323.13;105023;1262;70003;-50
2023/12/06 05:50:14;;;;;;;106.90;46.90;;;;;;;-5.24;97.56;100331.09;105071;1260;72679;-48
2023/12/06 05:52:43;;;;;;;108.70;48.30;;;;;;;-5.19;97.72;100331.92;105113;1257;81564;-48
2023/12/06 05:55:11;;;;;;;143.60;54.40;;;;;;;-5.15;97.60;100332.52;105236;1262;71759;-48
2023/12/06 05:57:39;;;;;;;95.80;47.60;;;;;;;-5.12;97.59;100329.67;105106;1261;69938;-48
2023/12/06 06:00:12;;;;;;;100.30;46.60;;;;;;;-5.06;97.93;100326.44;105124;1261;69974;-49
2023/12/06 06:02:44;;;;;;;103.20;46.90;;;;;;;-4.99;98.33;100333.77;105208;1261;73575;-50
2023/12/06 06:05:13;;;;;;;97.70;49.50;;;;;;;-4.95;98.36;100334.72;105245;1263;82096;-49
2023/12/06 06:07:41;;;;;;;103.90;50.10;;;;;;;-4.90;98.48;100334.68;105143;1263;71662;-48
2023/12/06 06:10:09;;;;;;;109.80;51.00;;;;;;;-4.85;98.64;100336.00;105126;1257;70049;-49
2023/12/06 06:12:38;;;;;;;114.00;52.10;;;;;;;-4.80;98.72;100337.81;105244;1263;70155;-48
2023/12/06 06:15:08;;;;;;;105.90;49.90;;;;;;;-4.76;98.54;100339.63;105210;1256;72797;-48
2023/12/06 06:17:36;;;;;;;103.90;47.50;;;;;;;-4.76;98.47;100339.45;105100;1263;81595;-48
2023/12/06 06:20:06;;;;;;;111.10;51.70;;;;;;;-4.71;98.65;100334.28;105252;1261;72197;-48
2023/12/06 06:22:34;;;;;;;102.00;50.50;;;;;;;-4.68;98.53;100334.50;105238;1261;70011;-47
2023/12/06 06:25:02;;;;;;;103.00;49.50;;;;;;;-4.66;98.36;100334.55;105139;1263;69932;-48
2023/12/06 06:27:31;;;;;;;109.90;48.70;;;;;;;-4.65;98.26;100334.59;105208;1257;71391;-49
2023/12/06 06:29:59;;;;;;;101.10;47.60;;;;;;;-4.65;98.28;100335.61;105144;1261;81513;-49
2023/12/06 06:32:27;;;;;;;106.00;49.00;;;;;;;-4.61;98.60;100334.68;105130;1263;72386;-48
2023/12/06 06:34:55;;;;;;;101.40;48.90;;;;;;;-4.57;98.56;100331.20;105118;1260;69955;-51
2023/12/06 06:37:24;;;;;;;108.00;52.50;;;;;;;-4.54;98.70;100330.75;105191;1270;69958;-47
2023/12/06 06:39:53;;;;;;;108.60;50.80;;;;;;;-4.51;98.69;100330.98;105219;1262;73158;-48
2023/12/06 06:42:21;;;;;;;110.90;51.30;;;;;;;-4.51;98.47;100332.36;105123;1262;81505;-48
2023/12/06 06:44:51;;;;;;;100.20;51.20;;;;;;;-4.53;98.12;100334.34;105095;1263;71667;-48
2023/12/06 06:47:23;;;;;;;109.10;52.40;;;;;;;-4.55;97.88;100330.03;105228;1263;69980;-49
2023/12/06 06:49:53;;;;;;;117.50;53.40;;;;;;;-4.60;97.54;100333.00;105125;1258;69848;-49
2023/12/06 06:52:22;;;;;;;116.20;53.70;;;;;;;-4.63;97.35;100335.64;105260;1262;72486;-48
2023/12/06 06:54:50;;;;;;;114.30;53.30;;;;;;;-4.64;97.48;100333.75;105288;1262;80623;-48
2023/12/06 06:57:19;;;;;;;110.90;51.30;;;;;;;-4.66;97.20;100338.48;105345;1260;70092;-48
2023/12/06 06:59:47;;;;;;;106.50;49.50;;;;;;;-4.69;97.07;100342.68;105109;1263;69998;-48
2023/12/06 07:02:19;;;;;;;97.50;47.90;;;;;;;-4.67;97.38;100342.88;105055;1262;69982;-48
2023/12/06 07:04:51;;;;;;;102.40;47.80;;;;;;;-4.64;97.40;100339.55;105194;1262;73251;-49
2023/12/06 07:07:19;;;;;;;98.70;49.20;;;;;;;-4.64;97.42;100342.11;105132;1261;81901;-48
2023/12/06 07:09:49;;;;;;;100.70;46.20;;;;;;;-4.65;97.28;100345.67;105275;1258;72737;-48
2023/12/06 07:12:20;;;;;;;102.20;49.10;;;;;;;-4.68;96.81;100349.35;105332;1262;69980;-49
2023/12/06 07:14:48;;;;;;;99.50;50.40;;;;;;;-4.67;97.28;100345.46;105257;1263;70072;-49
2023/12/06 07:17:16;;;;;;;100.40;47.60;;;;;;;-4.63;97.44;100342.48;105102;1257;72541;-45
2023/12/06 07:19:44;;;;;;;96.70;47.10;;;;;;;-4.62;97.25;100342.16;105163;1261;82284;-46
2023/12/06 07:22:13;;;;;;;98.50;46.80;;;;;;;-4.62;97.25;100343.17;105210;1261;72318;-45
2023/12/06 07:24:42;;;;;;;104.00;48.00;;;;;;;-4.59;97.29;100346.98;105280;1263;69991;-45
2023/12/06 07:27:10;;;;;;;103.60;50.50;;;;;;;-4.56;97.63;100345.03;105216;1261;69909;-46
2023/12/06 07:29:38;;;;;;;98.60;47.30;;;;;;;-4.51;97.79;100342.59;105110;1262;73352;-46
2023/12/06 07:32:06;;;;;;;103.20;48.90;;;;;;;-4.47;97.72;100338.92;105207;1262;81504;-48
2023/12/06 07:34:34;;;;;;;101.30;49.30;;;;;;;-4.44;97.79;100340.17;105256;1263;72880;-47
2023/12/06 07:37:16;;;;;;;105.20;49.70;;;;;;;-4.42;97.80;100343.81;105136;1263;69964;-48
2023/12/06 07:39:44;;;;;;;102.00;50.10;;;;;;;-4.37;98.05;100343.41;105261;1258;70685;-47
2023/12/06 07:42:13;;;;;;;102.40;49.10;;;;;;;-4.31;98.10;100342.53;105097;1263;72983;-47
2023/12/06 07:44:42;;;;;;;98.90;48.40;;;;;;;-4.26;98.33;100342.45;105140;1261;82529;-49
2023/12/06 07:47:10;;;;;;;101.50;49.60;;;;;;;-4.20;98.56;100345.67;105135;1258;71858;-47
2023/12/06 07:49:39;;;;;;;100.60;51.00;;;;;;;-4.13;98.73;100346.14;105062;1263;69903;-48
2023/12/06 07:52:07;;;;;;;105.80;50.10;;;;;;;-4.07;98.86;100350.39;105088;1261;70086;-50
2023/12/06 07:54:36;;;;;;;127.00;60.10;;;;;;;-3.99;99.09;100347.83;105104;1261;72784;-49
2023/12/06 07:57:05;;;;;;;109.50;54.10;;;;;;;-3.90;99.36;100346.81;105148;1261;81558;-50
2023/12/06 07:59:33;;;;;;;117.90;55.50;;;;;;;-3.79;99.75;100348.73;105096;1263;72004;-49
2023/12/06 08:02:02;;;;;;;112.30;55.70;;;;;;;-3.70;99.67;100344.48;105030;1264;70062;-49
2023/12/06 08:04:30;;;;;;;124.90;59.40;;;;;;;-3.66;99.55;100352.08;105142;1260;69893;-49
2023/12/06 08:06:58;;;;;;;136.80;64.00;;;;;;;-3.59;99.49;100352.20;105121;1261;73155;-50
2023/12/06 08:09:27;;;;;;;113.70;60.40;;;;;;;-3.55;99.46;100346.99;105036;1257;81542;-48
2023/12/06 08:11:56;;;;;;;115.70;57.30;;;;;;;-3.50;99.32;100348.62;105046;1261;71299;-48
2023/12/06 08:14:26;;;;;;;116.50;61.50;;;;;;;-3.45;99.47;100349.41;105068;1260;70110;-48
2023/12/06 08:16:54;;;;;;;122.60;61.10;;;;;;;-3.39;99.40;100346.61;105095;1263;70088;-50
2023/12/06 08:19:23;;;;;;;118.30;60.00;;;;;;;-3.35;99.39;100343.60;105037;1261;72801;-49
2023/12/06 08:21:51;;;;;;;108.70;55.70;;;;;;;-3.30;99.32;100344.70;105125;1261;81358;-49
2023/12/06 08:24:20;;;;;;;106.30;54.00;;;;;;;-3.23;99.56;100355.61;105008;1260;71698;-50
2023/12/06 08:26:48;;;;;;;107.70;56.00;;;;;;;-3.18;99.52;100353.14;105121;1271;70009;-52
2023/12/06 08:29:18;;;;;;;118.40;60.20;;;;;;;-3.11;99.65;100355.66;105050;1262;70006;-49
2023/12/06 08:31:46;;;;;;;121.10;62.10;;;;;;;-3.05;99.59;100356.45;105143;1263;73557;-50
2023/12/06 08:34:14;;;;;;;122.00;64.70;;;;;;;-3.00;99.43;100357.55;105155;1260;82381;-48
2023/12/06 08:36:42;;;;;;;117.80;61.40;;;;;;;-2.97;99.18;100357.42;105054;1257;71842;-50
2023/12/06 08:39:11;;;;;;;116.80;59.00;;;;;;;-2.97;99.26;100353.85;105089;1260;69942;-48
2023/12/06 08:41:39;;;;;;;112.20;56.60;;;;;;;-2.93;99.18;100354.25;105114;1263;70034;-48
2023/12/06 08:44:07;;;;;;;103.20;54.80;;;;;;;-2.91;99.30;100353.26;105116;1257;72973;-50
2023/12/06 08:46:35;;;;;;;105.20;53.90;;;;;;;-2.89;99.40;100353.64;105067;1260;82627;-50
2023/12/06 08:49:04;;;;;;;106.40;54.50;;;;;;;-2.84;99.44;100355.08;105034;1257;71715;-49
2023/12/06 08:51:32;;;;;;;101.00;51.70;;;;;;;-2.79;99.55;100359.79;105068;1258;69986;-48
2023/12/06 08:54:00;;;;;;;103.80;55.30;;;;;;;-2.75;99.65;100357.46;105192;1257;70329;-49
2023/12/06 08:56:29;;;;;;;99.90;52.60;;;;;;;-2.69;99.71;100357.21;104971;1260;73479;-48
2023/12/06 08:58:57;;;;;;;98.90;50.00;;;;;;;-2.66;99.53;100353.50;105094;1260;82110;-48
2023/12/06 09:01:25;;;;;;;100.70;52.30;;;;;;;-2.62;99.58;100355.77;105072;1257;70451;-48
2023/12/06 09:03:53;;;;;;;103.60;52.70;;;;;;;-2.55;99.74;100353.33;105090;1257;69955;-51
2023/12/06 09:06:22;;;;;;;101.10;50.90;;;;;;;-2.50;99.69;100350.66;105105;1260;70025;-51
2023/12/06 09:08:51;;;;;;;99.30;51.40;;;;;;;-2.45;99.75;100352.80;105122;1260;72793;-51
2023/12/06 09:11:20;;;;;;;101.30;53.10;;;;;;;-2.39;99.81;100353.73;105115;1258;81458;-49
2023/12/06 09:13:49;;;;;;;101.60;52.00;;;;;;;-2.33;99.87;100351.09;105155;1261;71594;-47
2023/12/06 09:16:17;;;;;;;101.60;51.10;;;;;;;-2.27;99.92;100351.02;105140;1261;70018;-50
2023/12/06 09:18:45;;;;;;;104.10;52.90;;;;;;;-2.20;99.97;100356.74;105142;1261;70062;-51
2023/12/06 09:21:14;;;;;;;101.40;52.50;;;;;;;-2.15;99.83;100353.73;105159;1257;71308;-48
2023/12/06 09:23:43;;;;;;;92.90;48.60;;;;;;;-2.11;99.76;100347.96;105129;1261;82475;-49
2023/12/06 09:26:11;;;;;;;101.30;53.00;;;;;;;-2.06;99.82;100345.98;105151;1260;72324;-51
2023/12/06 09:28:39;;;;;;;98.60;49.70;;;;;;;-2.01;99.76;100350.50;105059;1260;69888;-48
2023/12/06 09:31:07;;;;;;;102.90;53.10;;;;;;;-1.96;99.84;100356.56;105119;1258;70875;-51
2023/12/06 09:33:35;;;;;;;94.20;49.70;;;;;;;-1.90;99.83;100358.52;105206;1257;73030;-47
2023/12/06 09:36:04;;;;;;;100.50;52.20;;;;;;;-1.86;99.79;100356.17;105283;1261;81278;-48
2023/12/06 09:38:33;;;;;;;99.70;51.20;;;;;;;-1.83;99.64;100357.23;105199;1260;72074;-48
2023/12/06 09:41:03;;;;;;;99.30;51.80;;;;;;;-1.76;99.95;100358.17;105207;1257;69871;-48
2023/12/06 09:43:31;;;;;;;101.10;52.60;;;;;;;-1.67;99.86;100363.60;105323;1257;69891;-48
2023/12/06 09:46:00;;;;;;;98.00;50.60;;;;;;;-1.62;99.84;100365.89;105205;1258;72949;-50
2023/12/06 09:48:28;;;;;;;95.00;48.90;;;;;;;-1.57;99.85;100368.52;105132;1257;81116;-49
2023/12/06 09:50:56;;;;;;;99.70;52.90;;;;;;;-1.51;99.76;100368.23;105078;1260;70872;-50
2023/12/06 09:53:25;;;;;;;94.80;50.20;;;;;;;-1.47;99.62;100367.77;105553;1263;69986;-48
2023/12/06 09:55:54;;;;;;;96.00;51.50;;;;;;;-1.44;99.53;100364.21;105463;1260;69921;-47
2023/12/06 09:58:22;;;;;;;94.20;50.00;;;;;;;-1.42;99.41;100361.84;105246;1257;73180;-52
2023/12/06 10:00:51;;;;;;;97.10;50.90;;;;;;;-1.39;99.45;100359.65;105219;1260;81590;-48
2023/12/06 10:03:21;;;;;;;98.70;52.90;;;;;;;-1.33;99.51;100358.66;105454;1260;70779;-48
2023/12/06 10:05:59;;;;;;;101.40;53.60;;;;;;;-1.26;99.72;100361.83;105262;1257;69860;-48
2023/12/06 10:08:26;;;;;;;98.90;50.00;;;;;;;-1.22;99.45;100359.13;105126;1260;69979;-47
2023/12/06 10:11:03;;;;;;;98.50;52.80;;;;;;;-1.18;99.55;100358.66;104992;1257;73071;-49
2023/12/06 10:13:35;;;;;;;96.90;50.10;;;;;;;-1.13;99.39;100354.25;108832;1257;81375;-49
2023/12/06 10:16:17;;;;;;;98.80;51.10;;;;;;;-1.08;99.47;100354.64;108789;1257;71932;-50
2023/12/06 10:18:48;;;;;;;90.30;50.30;;;;;;;-1.03;99.39;100354.68;108833;1256;67811;-48
2023/12/06 10:21:17;;;;;;;95.80;49.70;;;;;;;-0.97;99.40;100354.73;106008;1258;69969;-48
2023/12/06 10:23:57;;;;;;;92.30;49.10;;;;;;;-0.93;99.20;100355.46;108852;1257;72965;-50
2023/12/06 10:26:27;;;;;;;85.50;48.30;;;;;;;-0.89;99.07;100355.67;108824;1257;82918;-48
2023/12/06 10:28:57;;;;;;;94.70;48.30;;;;;;;-0.85;98.92;100351.08;108821;1256;72010;-48
2023/12/06 10:31:25;;;;;;;91.20;50.00;;;;;;;-0.79;98.95;100348.71;107785;1257;68581;-49
2023/12/06 10:33:56;;;;;;;100.00;52.60;;;;;;;-0.78;98.76;100348.55;105342;1260;70006;-48
2023/12/06 10:36:27;;;;;;;91.60;48.30;;;;;;;-0.77;98.72;100342.39;105337;1257;72913;-48
2023/12/06 10:38:57;;;;;;;99.80;51.60;;;;;;;-0.76;98.64;100349.09;105349;1257;81455;-48
2023/12/06 10:41:31;;;;;;;93.20;49.30;;;;;;;-0.73;98.78;100341.38;105227;1260;72878;-47
2023/12/06 10:44:02;;;;;;;96.20;48.70;;;;;;;-0.71;98.54;100343.46;105234;1257;69941;-48
2023/12/06 10:46:31;;;;;;;96.90;50.10;;;;;;;-0.71;98.40;100344.50;105149;1258;69897;-47
2023/12/06 10:49:01;;;;;;;91.40;49.70;;;;;;;-0.70;98.40;100345.54;105241;1258;73020;-47
2023/12/06 10:51:30;;;;;;;98.70;52.10;;;;;;;-0.68;98.40;100340.58;105161;1262;81596;-47
2023/12/06 10:53:59;;;;;;;92.30;50.90;;;;;;;-0.68;98.33;100342.30;105096;1257;167351;-47
2023/12/06 10:56:28;;;;;;;100.90;52.00;;;;;;;-0.66;98.20;100344.36;105233;1258;69957;-48
2023/12/06 10:58:57;;;;;;;99.60;57.20;;;;;;;-0.64;98.34;100340.94;105212;1261;69998;-47
2023/12/06 11:01:26;;;;;;;101.40;53.60;;;;;;;-0.59;98.46;100338.41;105254;1257;72713;-47
2023/12/06 11:03:54;;;;;;;95.40;51.90;;;;;;;-0.54;98.46;100342.39;105434;1260;82615;-47
2023/12/06 11:07:17;;;;;;;90.80;50.10;;;;;;;-0.47;98.62;100338.67;105205;1257;71227;-46